Time;durP1;ratioP1;P1;durP2;ratioP2;P2;SDS_P1;SDS_P2;PMS_P1;PMS_P2;Temp;Humidity;BMP_temperature;BMP_pressure;BME280_temperature;BME280_humidity;BME280_pressure;Samples;Min_cycle;Max_cycle;Signal;HPM_P1;HPM_P2
2023/01/21 00:00:43;;;;;;;4.30;3.90;;;;;;;;;;5011496;28;20210;-59
2023/01/21 00:03:12;;;;;;;3.43;3.13;;;;;;;;;;5013117;28;20224;-60
2023/01/21 00:05:40;;;;;;;3.57;3.27;;;;;;;;;;5014944;28;20584;-60
2023/01/21 00:08:08;;;;;;;3.13;2.93;;;;;;;;;;5011922;28;20208;-60
2023/01/21 00:10:35;;;;;;;3.63;3.33;;;;;;;;;;5018276;28;20544;-61
2023/01/21 00:13:02;;;;;;;3.63;3.33;;;;;;;;;;5011194;28;20196;-61
2023/01/21 00:15:29;;;;;;;3.63;3.33;;;;;;;;;;5011275;28;20512;-60
2023/01/21 00:17:56;;;;;;;3.80;3.50;;;;;;;;;;5011187;28;20428;-60
2023/01/21 00:20:24;;;;;;;3.60;3.30;;;;;;;;;;5007056;28;20226;-61
2023/01/21 00:22:53;;;;;;;3.50;3.20;;;;;;;;;;5006337;28;20596;-61
2023/01/21 00:25:21;;;;;;;3.60;3.30;;;;;;;;;;5007895;28;20200;-59
2023/01/21 00:27:48;;;;;;;3.80;3.50;;;;;;;;;;5008551;28;20235;-60
2023/01/21 00:30:15;;;;;;;3.17;2.97;;;;;;;;;;5010537;28;20436;-60
2023/01/21 00:32:42;;;;;;;3.60;3.30;;;;;;;;;;5011712;28;20204;-60
2023/01/21 00:35:10;;;;;;;3.53;3.23;;;;;;;;;;5006319;28;20205;-59
2023/01/21 00:37:37;;;;;;;3.50;3.17;;;;;;;;;;5011047;28;20606;-57
2023/01/21 00:40:06;;;;;;;3.80;3.50;;;;;;;;;;5014845;28;20205;-60
2023/01/21 00:42:33;;;;;;;3.70;3.40;;;;;;;;;;5014801;28;20477;-61
2023/01/21 00:45:00;;;;;;;4.40;3.70;;;;;;;;;;5008884;28;20215;-60
2023/01/21 00:47:28;;;;;;;3.90;3.60;;;;;;;;;;5006628;28;20287;-59
2023/01/21 00:49:55;;;;;;;4.67;4.07;;;;;;;;;;5008039;28;20204;-60
2023/01/21 00:52:22;;;;;;;4.50;4.10;;;;;;;;;;5010751;28;20199;-59
2023/01/21 00:54:49;;;;;;;4.90;4.40;;;;;;;;;;5009539;28;20216;-59
2023/01/21 00:57:18;;;;;;;5.07;4.67;;;;;;;;;;5008998;28;20501;-60
2023/01/21 00:59:45;;;;;;;5.43;4.93;;;;;;;;;;5013670;28;20254;-59
2023/01/21 01:02:12;;;;;;;4.90;4.43;;;;;;;;;;5006355;28;20205;-60
2023/01/21 01:04:39;;;;;;;6.07;5.47;;;;;;;;;;5011500;28;20208;-56
2023/01/21 01:07:06;;;;;;;5.80;5.30;;;;;;;;;;5009586;28;20196;-61
2023/01/21 01:09:33;;;;;;;6.00;5.40;;;;;;;;;;5013561;28;20232;-61
2023/01/21 01:12:00;;;;;;;5.53;5.03;;;;;;;;;;5006311;28;20200;-60
2023/01/21 01:14:29;;;;;;;6.07;5.20;;;;;;;;;;5010416;28;20200;-61
2023/01/21 01:16:56;;;;;;;6.43;5.73;;;;;;;;;;5011685;28;20279;-60
2023/01/21 01:19:23;;;;;;;6.40;5.80;;;;;;;;;;5011336;28;20295;-61
2023/01/21 01:21:50;;;;;;;5.83;5.33;;;;;;;;;;5011730;28;20217;-57
2023/01/21 01:24:17;;;;;;;5.73;5.23;;;;;;;;;;5014746;28;20216;-61
2023/01/21 01:26:44;;;;;;;5.70;5.20;;;;;;;;;;5010849;28;20268;-61
2023/01/21 01:29:12;;;;;;;6.10;5.30;;;;;;;;;;5004645;28;20201;-60
2023/01/21 01:31:42;;;;;;;5.47;4.97;;;;;;;;;;5005760;28;20208;-59
2023/01/21 01:34:09;;;;;;;6.73;5.20;;;;;;;;;;5011217;28;20299;-59
2023/01/21 01:36:38;;;;;;;5.40;4.90;;;;;;;;;;5008370;28;20222;-59
2023/01/21 01:39:06;;;;;;;5.47;4.83;;;;;;;;;;5009844;28;20213;-60
2023/01/21 01:41:34;;;;;;;5.53;4.93;;;;;;;;;;5012306;28;20209;-59
2023/01/21 01:44:02;;;;;;;5.60;5.10;;;;;;;;;;5006367;28;20228;-62
2023/01/21 01:46:31;;;;;;;5.17;4.67;;;;;;;;;;5010484;28;20197;-62
2023/01/21 01:49:02;;;;;;;5.77;5.27;;;;;;;;;;5005423;28;20204;-60
2023/01/21 01:51:32;;;;;;;6.10;5.50;;;;;;;;;;5009731;28;20204;-58
2023/01/21 01:53:59;;;;;;;5.67;5.13;;;;;;;;;;5002489;28;20208;-59
2023/01/21 01:56:27;;;;;;;5.80;5.20;;;;;;;;;;5007693;28;20398;-60
2023/01/21 01:58:55;;;;;;;5.43;4.93;;;;;;;;;;5010045;28;20348;-62
2023/01/21 02:01:22;;;;;;;5.43;4.93;;;;;;;;;;5008527;28;20519;-60
2023/01/21 02:03:57;;;;;;;5.93;5.17;;;;;;;;;;5004252;28;20223;-60
2023/01/21 02:06:26;;;;;;;4.93;4.53;;;;;;;;;;5008488;28;20290;-59
2023/01/21 02:08:53;;;;;;;4.93;4.53;;;;;;;;;;5011088;28;20244;-61
2023/01/21 02:11:21;;;;;;;5.00;4.53;;;;;;;;;;5010197;28;20200;-59
2023/01/21 02:13:51;;;;;;;4.83;4.43;;;;;;;;;;5007398;28;20208;-58
2023/01/21 02:16:27;;;;;;;4.90;4.50;;;;;;;;;;5009823;28;20212;-62
2023/01/21 02:18:59;;;;;;;4.83;4.43;;;;;;;;;;5008812;28;20199;-61
2023/01/21 02:21:44;;;;;;;4.57;4.17;;;;;;;;;;5012945;28;20215;-58
2023/01/21 02:24:30;;;;;;;4.17;3.87;;;;;;;;;;5004587;28;20228;-58
2023/01/21 02:27:05;;;;;;;4.30;3.97;;;;;;;;;;5003707;28;20196;-60
2023/01/21 02:29:46;;;;;;;4.13;3.83;;;;;;;;;;5013155;28;20208;-60
2023/01/21 02:32:27;;;;;;;4.10;3.80;;;;;;;;;;5003778;28;20209;-60
2023/01/21 02:34:58;;;;;;;4.53;4.13;;;;;;;;;;5008130;28;20192;-57
2023/01/21 02:37:31;;;;;;;4.63;4.23;;;;;;;;;;5009894;28;20227;-58
2023/01/21 02:40:04;;;;;;;4.70;4.30;;;;;;;;;;5005670;28;20207;-59
2023/01/21 02:42:37;;;;;;;4.33;4.03;;;;;;;;;;5011528;28;20364;-60
2023/01/21 02:45:10;;;;;;;4.97;4.47;;;;;;;;;;5005341;28;20236;-60
2023/01/21 02:47:40;;;;;;;4.50;4.10;;;;;;;;;;5014066;28;20204;-61
2023/01/21 02:50:11;;;;;;;4.73;4.33;;;;;;;;;;5009044;28;20228;-58
2023/01/21 02:52:38;;;;;;;4.33;3.93;;;;;;;;;;5009601;28;20214;-61
2023/01/21 02:55:09;;;;;;;4.43;4.03;;;;;;;;;;5011575;28;20460;-61
2023/01/21 02:57:40;;;;;;;4.30;3.90;;;;;;;;;;5009898;28;20210;-59
2023/01/21 03:00:10;;;;;;;4.10;3.70;;;;;;;;;;5011584;28;20534;-59
2023/01/21 03:02:48;;;;;;;4.57;3.73;;;;;;;;;;5010396;28;20204;-60
2023/01/21 03:05:22;;;;;;;3.90;3.60;;;;;;;;;;5002207;28;20201;-60
2023/01/21 03:07:56;;;;;;;4.07;3.67;;;;;;;;;;5002653;28;20208;-59
2023/01/21 03:10:27;;;;;;;3.70;3.40;;;;;;;;;;5007515;28;20235;-60
2023/01/21 03:13:00;;;;;;;4.00;3.70;;;;;;;;;;5004211;28;20209;-61
2023/01/21 03:18:15;;;;;;;3.70;3.40;;;;;;;;;;5007617;28;20512;-59
2023/01/21 03:20:45;;;;;;;3.80;3.50;;;;;;;;;;5002226;28;20201;-55
2023/01/21 03:23:15;;;;;;;3.70;3.40;;;;;;;;;;5007093;28;20200;-59
2023/01/21 03:25:42;;;;;;;4.10;3.80;;;;;;;;;;5009502;28;20200;-58
2023/01/21 03:28:12;;;;;;;4.30;3.90;;;;;;;;;;5008357;28;20223;-55
2023/01/21 03:30:41;;;;;;;3.40;3.10;;;;;;;;;;5006112;28;20211;-60
2023/01/21 03:33:09;;;;;;;3.73;3.43;;;;;;;;;;5012055;28;20215;-60
2023/01/21 03:35:39;;;;;;;3.50;3.20;;;;;;;;;;5014249;28;20204;-56
2023/01/21 03:38:12;;;;;;;3.10;2.90;;;;;;;;;;5011812;28;20204;-60
2023/01/21 03:40:42;;;;;;;3.30;3.00;;;;;;;;;;5012989;28;20204;-60
2023/01/21 03:43:10;;;;;;;2.70;2.50;;;;;;;;;;5011969;28;20247;-58
2023/01/21 03:45:39;;;;;;;3.10;2.83;;;;;;;;;;5010610;28;20205;-58
2023/01/21 03:48:10;;;;;;;2.47;2.27;;;;;;;;;;5009129;28;20200;-60
2023/01/21 03:50:40;;;;;;;2.87;2.67;;;;;;;;;;5011860;28;20219;-59
2023/01/21 03:53:08;;;;;;;2.63;2.43;;;;;;;;;;5011262;28;20212;-60
2023/01/21 03:55:36;;;;;;;2.77;2.57;;;;;;;;;;5011948;28;20196;-56
2023/01/21 03:58:04;;;;;;;2.93;2.63;;;;;;;;;;5010839;28;20427;-61
2023/01/21 04:00:31;;;;;;;2.90;2.50;;;;;;;;;;5006960;28;20201;-60
2023/01/21 04:02:58;;;;;;;2.70;2.50;;;;;;;;;;5011678;28;20511;-60
2023/01/21 04:05:26;;;;;;;2.67;2.47;;;;;;;;;;5008990;28;20221;-57
2023/01/21 04:07:53;;;;;;;2.70;2.50;;;;;;;;;;5011994;28;20200;-59
2023/01/21 04:10:21;;;;;;;2.80;2.60;;;;;;;;;;5009541;28;20252;-61
2023/01/21 04:12:48;;;;;;;2.77;2.47;;;;;;;;;;5011970;28;20192;-61
2023/01/21 04:15:15;;;;;;;2.60;2.40;;;;;;;;;;5015452;28;20212;-58
2023/01/21 04:17:42;;;;;;;2.83;2.57;;;;;;;;;;5013288;28;20209;-59
2023/01/21 04:20:10;;;;;;;2.80;2.60;;;;;;;;;;5009125;28;20204;-57
2023/01/21 04:22:37;;;;;;;2.90;2.70;;;;;;;;;;5012435;28;20226;-59
2023/01/21 04:25:05;;;;;;;2.80;2.60;;;;;;;;;;5006896;28;20207;-60
2023/01/21 04:27:33;;;;;;;3.17;2.90;;;;;;;;;;5013330;28;20535;-60
2023/01/21 04:30:01;;;;;;;2.90;2.60;;;;;;;;;;5009863;28;20570;-60
2023/01/21 04:32:28;;;;;;;2.70;2.50;;;;;;;;;;5010783;28;20530;-60
2023/01/21 04:34:55;;;;;;;2.57;2.37;;;;;;;;;;5013031;28;20296;-61
2023/01/21 04:37:22;;;;;;;2.80;2.60;;;;;;;;;;5009782;28;20358;-55
2023/01/21 04:39:49;;;;;;;2.97;2.67;;;;;;;;;;5011508;28;20204;-59
2023/01/21 04:42:16;;;;;;;3.07;2.50;;;;;;;;;;5015583;28;20219;-58
2023/01/21 04:44:45;;;;;;;2.87;2.67;;;;;;;;;;5015743;28;20215;-60
2023/01/21 04:47:12;;;;;;;2.90;2.70;;;;;;;;;;5012190;28;20196;-59
2023/01/21 04:49:39;;;;;;;2.90;2.70;;;;;;;;;;5007425;28;20204;-61
2023/01/21 04:52:06;;;;;;;3.17;2.80;;;;;;;;;;5011260;28;20213;-60
2023/01/21 04:54:33;;;;;;;4.00;3.30;;;;;;;;;;5009535;28;20218;-59
2023/01/21 04:57:01;;;;;;;3.23;2.93;;;;;;;;;;5011292;28;20219;-60
2023/01/21 04:59:28;;;;;;;3.33;2.93;;;;;;;;;;5012365;28;20558;-62
2023/01/21 05:01:56;;;;;;;3.33;3.00;;;;;;;;;;5010936;28;20487;-61
2023/01/21 05:04:23;;;;;;;4.27;3.60;;;;;;;;;;5011759;28;20221;-60
2023/01/21 05:06:50;;;;;;;3.73;3.27;;;;;;;;;;5009659;28;20201;-62
2023/01/21 05:09:18;;;;;;;3.83;3.50;;;;;;;;;;5009829;28;20624;-61
2023/01/21 05:11:45;;;;;;;4.27;3.80;;;;;;;;;;5012197;28;20281;-60
2023/01/21 05:14:12;;;;;;;4.23;3.80;;;;;;;;;;5010939;28;20216;-60
2023/01/21 05:16:39;;;;;;;5.17;3.90;;;;;;;;;;5008179;28;20208;-61
2023/01/21 05:19:07;;;;;;;5.17;4.10;;;;;;;;;;5009607;28;20298;-60
2023/01/21 05:21:35;;;;;;;4.50;4.10;;;;;;;;;;5011015;28;20401;-57
2023/01/21 05:24:02;;;;;;;5.67;4.37;;;;;;;;;;5012667;28;20220;-60
2023/01/21 05:26:29;;;;;;;5.30;4.80;;;;;;;;;;5010681;28;20432;-58
2023/01/21 05:28:56;;;;;;;5.33;4.70;;;;;;;;;;5007978;28;20204;-60
2023/01/21 05:31:24;;;;;;;4.73;4.33;;;;;;;;;;5010593;28;20208;-61
2023/01/21 05:33:51;;;;;;;5.60;5.00;;;;;;;;;;5008259;28;20205;-60
2023/01/21 05:36:19;;;;;;;5.77;5.20;;;;;;;;;;5008072;28;20208;-60
2023/01/21 05:38:46;;;;;;;5.87;4.80;;;;;;;;;;5010737;28;20196;-60
2023/01/21 05:41:13;;;;;;;5.77;5.23;;;;;;;;;;5006461;28;20271;-59
2023/01/21 05:43:41;;;;;;;5.50;4.80;;;;;;;;;;5013126;28;20196;-60
2023/01/21 05:46:08;;;;;;;6.40;5.60;;;;;;;;;;5012945;28;20216;-60
2023/01/21 05:48:35;;;;;;;5.60;5.00;;;;;;;;;;5006820;28;20197;-61
2023/01/21 05:51:02;;;;;;;5.50;4.93;;;;;;;;;;5009699;28;20208;-61
2023/01/21 05:53:30;;;;;;;5.70;5.20;;;;;;;;;;5009155;28;20402;-61
2023/01/21 05:55:58;;;;;;;7.63;5.90;;;;;;;;;;5010340;28;20193;-59
2023/01/21 05:58:25;;;;;;;5.17;4.67;;;;;;;;;;5015206;28;20201;-61
2023/01/21 06:00:53;;;;;;;7.17;6.07;;;;;;;;;;5010130;28;20201;-58
2023/01/21 06:03:20;;;;;;;6.47;5.87;;;;;;;;;;5013741;28;20222;-60
2023/01/21 06:05:49;;;;;;;6.47;5.70;;;;;;;;;;5007873;28;20243;-59
2023/01/21 06:08:16;;;;;;;6.53;5.70;;;;;;;;;;5004771;28;21394;-57
2023/01/21 06:10:45;;;;;;;6.47;5.50;;;;;;;;;;5002743;28;20200;-59
2023/01/21 06:13:12;;;;;;;6.67;5.63;;;;;;;;;;5005190;28;20756;-58
2023/01/21 06:15:39;;;;;;;6.43;5.50;;;;;;;;;;5002214;28;20200;-59
2023/01/21 06:18:07;;;;;;;6.57;5.83;;;;;;;;;;5000573;28;20275;-58
2023/01/21 06:20:34;;;;;;;7.27;5.40;;;;;;;;;;5006065;28;20214;-59
2023/01/21 06:23:01;;;;;;;7.07;5.17;;;;;;;;;;5002656;28;20438;-57
2023/01/21 06:25:28;;;;;;;7.40;5.90;;;;;;;;;;5004261;28;20217;-57
2023/01/21 06:27:57;;;;;;;6.03;5.43;;;;;;;;;;5008212;28;20208;-59
2023/01/21 06:30:25;;;;;;;6.17;5.37;;;;;;;;;;5006020;28;20219;-56
2023/01/21 06:32:52;;;;;;;6.13;5.53;;;;;;;;;;5012553;28;20218;-60
2023/01/21 06:35:19;;;;;;;6.73;6.03;;;;;;;;;;5009648;28;20390;-60
2023/01/21 06:37:47;;;;;;;7.17;6.33;;;;;;;;;;5001254;28;20652;-60
2023/01/21 06:40:14;;;;;;;6.70;5.77;;;;;;;;;;5000435;28;20455;-57
2023/01/21 06:42:42;;;;;;;6.83;6.13;;;;;;;;;;5004436;28;20208;-59
2023/01/21 06:45:11;;;;;;;7.50;6.17;;;;;;;;;;5005777;28;20522;-60
2023/01/21 06:47:40;;;;;;;8.23;6.20;;;;;;;;;;5005001;28;20196;-59
2023/01/21 06:50:07;;;;;;;7.27;6.17;;;;;;;;;;5000952;28;20219;-58
2023/01/21 06:52:34;;;;;;;8.03;7.00;;;;;;;;;;5004858;28;20204;-57
2023/01/21 06:55:01;;;;;;;7.67;6.43;;;;;;;;;;5007172;28;20200;-60
2023/01/21 06:57:29;;;;;;;8.23;6.80;;;;;;;;;;5003022;28;20203;-60
2023/01/21 06:59:56;;;;;;;10.33;6.60;;;;;;;;;;5002906;28;20647;-61
2023/01/21 07:02:25;;;;;;;7.53;6.73;;;;;;;;;;5000288;28;20211;-57
2023/01/21 07:04:52;;;;;;;8.50;6.87;;;;;;;;;;5000614;28;20217;-56
2023/01/21 07:07:19;;;;;;;7.93;6.83;;;;;;;;;;5003097;28;20324;-60
2023/01/21 07:09:46;;;;;;;9.63;7.67;;;;;;;;;;5015011;28;20243;-60
2023/01/21 07:12:13;;;;;;;8.37;7.40;;;;;;;;;;5015595;28;20533;-56
2023/01/21 07:14:40;;;;;;;10.90;7.43;;;;;;;;;;5021105;28;20201;-61
2023/01/21 07:17:07;;;;;;;8.70;7.60;;;;;;;;;;5012823;28;20204;-58
2023/01/21 07:19:36;;;;;;;9.00;7.50;;;;;;;;;;5011347;28;20210;-60
2023/01/21 07:22:03;;;;;;;11.87;7.93;;;;;;;;;;5010404;28;20274;-57
2023/01/21 07:24:30;;;;;;;8.90;8.00;;;;;;;;;;5010046;28;20454;-57
2023/01/21 07:26:57;;;;;;;9.67;7.23;;;;;;;;;;5004558;28;20209;-59
2023/01/21 07:29:26;;;;;;;8.40;7.17;;;;;;;;;;5010690;28;20395;-58
2023/01/21 07:31:53;;;;;;;9.30;7.43;;;;;;;;;;5008265;28;20208;-58
2023/01/21 07:34:21;;;;;;;8.97;7.40;;;;;;;;;;5016870;28;20214;-59
2023/01/21 07:36:49;;;;;;;10.27;8.90;;;;;;;;;;5007382;28;20200;-58
2023/01/21 07:39:16;;;;;;;12.37;9.23;;;;;;;;;;5011962;28;20223;-58
2023/01/21 07:41:43;;;;;;;10.87;8.43;;;;;;;;;;5012314;28;20204;-60
2023/01/21 07:44:11;;;;;;;12.07;9.20;;;;;;;;;;5014192;28;20494;-57
2023/01/21 07:46:38;;;;;;;10.23;8.90;;;;;;;;;;5015573;28;20550;-60
2023/01/21 07:49:05;;;;;;;9.53;7.90;;;;;;;;;;5013035;28;20260;-59
2023/01/21 07:51:32;;;;;;;9.87;8.20;;;;;;;;;;5015652;28;20435;-60
2023/01/21 07:54:00;;;;;;;10.33;9.07;;;;;;;;;;5013935;28;20197;-61
2023/01/21 07:56:28;;;;;;;12.70;10.17;;;;;;;;;;5011193;28;20188;-59
2023/01/21 07:58:55;;;;;;;10.27;9.17;;;;;;;;;;5015588;28;20208;-57
2023/01/21 08:01:25;;;;;;;11.30;8.87;;;;;;;;;;5010542;28;20461;-61
2023/01/21 08:03:52;;;;;;;10.50;8.33;;;;;;;;;;5016658;28;20208;-60
2023/01/21 08:06:21;;;;;;;9.97;8.53;;;;;;;;;;5010935;28;20454;-60
2023/01/21 08:08:48;;;;;;;12.83;9.30;;;;;;;;;;5017973;28;20235;-59
2023/01/21 08:11:17;;;;;;;11.60;9.10;;;;;;;;;;5014577;28;20215;-60
2023/01/21 08:13:44;;;;;;;12.43;9.40;;;;;;;;;;5015444;28;20208;-60
2023/01/21 08:16:12;;;;;;;10.53;9.13;;;;;;;;;;5010493;28;20212;-58
2023/01/21 08:18:39;;;;;;;12.33;9.67;;;;;;;;;;5011280;28;20408;-59
2023/01/21 08:21:06;;;;;;;10.70;9.23;;;;;;;;;;5010276;28;20517;-58
2023/01/21 08:23:34;;;;;;;11.63;9.60;;;;;;;;;;5009965;28;20216;-60
2023/01/21 08:26:02;;;;;;;10.70;9.10;;;;;;;;;;5016108;28;20377;-57
2023/01/21 08:28:37;;;;;;;11.50;9.43;;;;;;;;;;5015763;28;20253;-60
2023/01/21 08:31:05;;;;;;;9.63;8.00;;;;;;;;;;5013541;28;20218;-59
2023/01/21 08:33:32;;;;;;;10.80;8.17;;;;;;;;;;5010340;28;20216;-59
2023/01/21 08:36:00;;;;;;;11.70;8.73;;;;;;;;;;5019201;28;20200;-59
2023/01/21 08:38:27;;;;;;;15.00;11.00;;;;;;;;;;5014243;28;20224;-57
2023/01/21 08:40:54;;;;;;;13.30;10.70;;;;;;;;;;5016569;28;20290;-58
2023/01/21 08:43:22;;;;;;;17.67;12.23;;;;;;;;;;5007617;28;20262;-59
2023/01/21 08:45:50;;;;;;;15.23;11.93;;;;;;;;;;5014770;28;20433;-58
2023/01/21 08:48:17;;;;;;;13.00;10.40;;;;;;;;;;5012921;28;20493;-59
2023/01/21 08:50:44;;;;;;;11.40;9.23;;;;;;;;;;5010220;28;20247;-56
2023/01/21 08:53:12;;;;;;;11.77;9.40;;;;;;;;;;5013917;28;20204;-58
2023/01/21 08:55:39;;;;;;;11.40;9.03;;;;;;;;;;5011217;28;20200;-60
2023/01/21 08:58:06;;;;;;;11.10;8.40;;;;;;;;;;5012932;28;20200;-59
2023/01/21 09:00:33;;;;;;;11.87;8.47;;;;;;;;;;5009172;28;20205;-56
2023/01/21 09:03:02;;;;;;;10.67;8.77;;;;;;;;;;5010348;28;20308;-59
2023/01/21 09:05:29;;;;;;;10.40;8.23;;;;;;;;;;5013445;28;20224;-58
2023/01/21 09:07:56;;;;;;;9.60;8.60;;;;;;;;;;5011519;28;20211;-57
2023/01/21 09:13:05;;;;;;;11.60;9.07;;;;;;;;;;5003374;28;20291;-60
2023/01/21 09:15:32;;;;;;;10.23;8.17;;;;;;;;;;5011519;28;20200;-60
2023/01/21 09:17:59;;;;;;;11.17;7.83;;;;;;;;;;5013543;28;20524;-59
2023/01/21 09:20:27;;;;;;;10.00;8.17;;;;;;;;;;5008969;28;20201;-59
2023/01/21 09:22:54;;;;;;;11.60;8.53;;;;;;;;;;5006295;28;20235;-60
2023/01/21 09:25:22;;;;;;;9.77;8.10;;;;;;;;;;5010329;28;20251;-59
2023/01/21 09:27:49;;;;;;;11.73;8.73;;;;;;;;;;5011507;28;20274;-57
2023/01/21 09:30:16;;;;;;;13.30;8.67;;;;;;;;;;5009651;28;20220;-58
2023/01/21 09:32:44;;;;;;;10.93;8.50;;;;;;;;;;5014585;28;20216;-61
2023/01/21 09:35:11;;;;;;;9.20;8.03;;;;;;;;;;5007352;28;20244;-59
2023/01/21 09:37:39;;;;;;;12.00;9.80;;;;;;;;;;5011562;28;20212;-60
2023/01/21 09:40:07;;;;;;;11.23;8.90;;;;;;;;;;5010915;28;20211;-59
2023/01/21 09:42:34;;;;;;;11.27;9.27;;;;;;;;;;5015567;28;20208;-60
2023/01/21 09:45:02;;;;;;;10.33;8.70;;;;;;;;;;5011545;28;20212;-59
2023/01/21 09:47:31;;;;;;;10.60;8.57;;;;;;;;;;5014049;28;20215;-61
2023/01/21 09:50:00;;;;;;;10.10;8.80;;;;;;;;;;5008007;28;20213;-59
2023/01/21 09:52:31;;;;;;;12.40;9.50;;;;;;;;;;5013569;28;20235;-60
2023/01/21 09:54:59;;;;;;;12.13;9.37;;;;;;;;;;5012057;28;20216;-58
2023/01/21 09:57:42;;;;;;;11.47;8.90;;;;;;;;;;5007948;28;20192;-56
2023/01/21 10:00:17;;;;;;;9.57;8.43;;;;;;;;;;5009312;28;20227;-59
2023/01/21 10:02:48;;;;;;;9.73;8.43;;;;;;;;;;5012338;28;20239;-59
2023/01/21 10:05:29;;;;;;;9.60;8.23;;;;;;;;;;5015177;28;20438;-59
2023/01/21 10:07:59;;;;;;;12.00;8.90;;;;;;;;;;5006732;28;20223;-60
2023/01/21 10:10:32;;;;;;;10.80;8.23;;;;;;;;;;5016845;28;20242;-58
2023/01/21 10:13:05;;;;;;;11.20;8.90;;;;;;;;;;5011814;28;20216;-59
2023/01/21 10:15:38;;;;;;;11.23;8.47;;;;;;;;;;5014260;28;20210;-56
2023/01/21 10:18:08;;;;;;;11.03;9.00;;;;;;;;;;5008474;28;20213;-60
2023/01/21 10:20:40;;;;;;;12.57;9.60;;;;;;;;;;5009383;28;20204;-60
2023/01/21 10:23:13;;;;;;;11.93;8.97;;;;;;;;;;5014434;28;20303;-58
2023/01/21 10:25:41;;;;;;;10.97;8.93;;;;;;;;;;5002646;28;20217;-60
2023/01/21 10:28:12;;;;;;;10.73;8.63;;;;;;;;;;5011419;28;20212;-60
2023/01/21 10:30:40;;;;;;;13.70;10.13;;;;;;;;;;5014629;28;20215;-60
2023/01/21 10:33:13;;;;;;;12.77;9.90;;;;;;;;;;5011446;28;20207;-58
2023/01/21 10:35:48;;;;;;;11.30;8.90;;;;;;;;;;5013825;28;20247;-59
2023/01/21 10:38:19;;;;;;;13.77;9.80;;;;;;;;;;5007397;28;20212;-58
2023/01/21 10:40:54;;;;;;;13.33;11.00;;;;;;;;;;5007090;28;20216;-58
2023/01/21 10:43:27;;;;;;;14.47;9.97;;;;;;;;;;5003565;28;20208;-61
2023/01/21 10:45:59;;;;;;;13.77;10.40;;;;;;;;;;5014107;28;20404;-61
2023/01/21 10:48:32;;;;;;;12.97;9.73;;;;;;;;;;5015231;28;20215;-57
2023/01/21 10:51:01;;;;;;;13.40;10.03;;;;;;;;;;5013406;28;20209;-59
2023/01/21 10:53:32;;;;;;;15.17;9.30;;;;;;;;;;5010806;28;20437;-60
2023/01/21 10:56:09;;;;;;;12.33;10.07;;;;;;;;;;5016618;28;20210;-58
2023/01/21 10:58:38;;;;;;;13.23;9.67;;;;;;;;;;5011976;28;20220;-54
2023/01/21 11:01:06;;;;;;;12.67;10.20;;;;;;;;;;5010535;28;20208;-60
2023/01/21 11:03:37;;;;;;;12.73;9.43;;;;;;;;;;5008237;28;20220;-57
2023/01/21 11:06:07;;;;;;;16.67;10.43;;;;;;;;;;5005983;28;20286;-57
2023/01/21 11:08:34;;;;;;;11.57;9.53;;;;;;;;;;5006783;28;20243;-57
2023/01/21 11:11:02;;;;;;;13.80;10.10;;;;;;;;;;5011621;28;20295;-57
2023/01/21 11:13:31;;;;;;;10.50;9.10;;;;;;;;;;5011801;28;20196;-58
2023/01/21 11:15:58;;;;;;;14.07;10.07;;;;;;;;;;5010815;28;20200;-57
2023/01/21 11:18:27;;;;;;;10.90;9.40;;;;;;;;;;5011125;28;20212;-54
2023/01/21 11:20:56;;;;;;;10.57;9.30;;;;;;;;;;5010829;28;20505;-57
2023/01/21 11:23:26;;;;;;;12.50;9.20;;;;;;;;;;5009126;28;20398;-54
2023/01/21 11:25:53;;;;;;;11.40;8.83;;;;;;;;;;5008732;28;20413;-54
2023/01/21 11:28:23;;;;;;;12.03;9.40;;;;;;;;;;5010469;28;20358;-57
2023/01/21 11:31:02;;;;;;;10.20;8.73;;;;;;;;;;5009748;28;20211;-58
2023/01/21 11:33:30;;;;;;;13.00;9.63;;;;;;;;;;5012102;28;20285;-59
2023/01/21 11:35:57;;;;;;;13.47;10.87;;;;;;;;;;5006048;28;20223;-58
2023/01/21 11:38:33;;;;;;;11.30;9.33;;;;;;;;;;5008032;28;20505;-59
2023/01/21 11:41:01;;;;;;;11.33;9.60;;;;;;;;;;5011210;28;20212;-58
2023/01/21 11:43:40;;;;;;;11.87;9.23;;;;;;;;;;5012819;28;20231;-58
2023/01/21 11:46:26;;;;;;;11.10;9.17;;;;;;;;;;5010362;28;20247;-58
2023/01/21 11:48:56;;;;;;;13.20;9.00;;;;;;;;;;5010260;28;20200;-57
2023/01/21 11:51:23;;;;;;;10.80;9.10;;;;;;;;;;5001871;28;20232;-59
2023/01/21 11:54:06;;;;;;;11.03;9.50;;;;;;;;;;5006186;28;20219;-55
2023/01/21 11:56:33;;;;;;;14.27;10.57;;;;;;;;;;5003710;28;20228;-58
2023/01/21 11:59:01;;;;;;;12.40;9.43;;;;;;;;;;5011998;28;20223;-56
2023/01/21 12:01:28;;;;;;;11.00;9.20;;;;;;;;;;5012246;28;20204;-58
2023/01/21 12:03:59;;;;;;;14.77;12.03;;;;;;;;;;5014600;28;20211;-57
2023/01/21 12:06:29;;;;;;;11.63;10.43;;;;;;;;;;5012988;28;20328;-58
2023/01/21 12:08:58;;;;;;;11.87;9.87;;;;;;;;;;5012176;28;20420;-58
2023/01/21 12:11:27;;;;;;;15.23;13.33;;;;;;;;;;5009676;28;20197;-55
2023/01/21 12:14:00;;;;;;;10.53;9.10;;;;;;;;;;5014854;28;20287;-57
2023/01/21 12:16:32;;;;;;;11.17;8.70;;;;;;;;;;5011344;28;20222;-58
2023/01/21 12:19:19;;;;;;;9.70;8.27;;;;;;;;;;5008924;28;20258;-56
2023/01/21 12:21:50;;;;;;;11.00;9.10;;;;;;;;;;5010723;28;20204;-57
2023/01/21 12:24:21;;;;;;;11.87;9.83;;;;;;;;;;5010573;28;20306;-56
2023/01/21 12:26:50;;;;;;;12.83;10.33;;;;;;;;;;5009021;28;20422;-56
2023/01/21 12:29:27;;;;;;;11.73;9.67;;;;;;;;;;5006749;28;20240;-57
2023/01/21 12:31:55;;;;;;;12.87;10.03;;;;;;;;;;5009390;28;20249;-58
2023/01/21 12:34:26;;;;;;;9.37;8.00;;;;;;;;;;5013828;28;20215;-58
2023/01/21 12:36:54;;;;;;;10.27;8.57;;;;;;;;;;5010698;28;20196;-57
2023/01/21 12:39:25;;;;;;;12.07;10.20;;;;;;;;;;5010171;28;20200;-58
2023/01/21 12:41:57;;;;;;;15.20;11.03;;;;;;;;;;5010648;28;20202;-56
2023/01/21 12:44:27;;;;;;;14.63;9.97;;;;;;;;;;5010181;28;20482;-58
2023/01/21 12:46:56;;;;;;;14.90;11.07;;;;;;;;;;5008679;28;20523;-56
2023/01/21 12:49:28;;;;;;;16.80;11.83;;;;;;;;;;5012042;28;20204;-58
2023/01/21 12:51:59;;;;;;;14.10;10.30;;;;;;;;;;5011856;28;20407;-56
2023/01/21 12:54:29;;;;;;;11.37;10.07;;;;;;;;;;5010823;28;20197;-56
2023/01/21 12:56:58;;;;;;;15.63;11.73;;;;;;;;;;5011257;28;20193;-56
2023/01/21 12:59:29;;;;;;;20.27;12.37;;;;;;;;;;5012906;28;20203;-56
2023/01/21 13:02:01;;;;;;;16.93;13.10;;;;;;;;;;5012680;28;20200;-56
2023/01/21 13:04:38;;;;;;;14.23;10.80;;;;;;;;;;5007710;28;20211;-59
2023/01/21 13:07:09;;;;;;;16.53;11.37;;;;;;;;;;5010452;28;20254;-56
2023/01/21 13:09:42;;;;;;;11.67;9.93;;;;;;;;;;5013963;28;20297;-58
2023/01/21 13:12:13;;;;;;;10.67;9.00;;;;;;;;;;5012181;28;20265;-58
2023/01/21 13:14:51;;;;;;;9.20;8.03;;;;;;;;;;5013197;28;20192;-57
2023/01/21 13:17:23;;;;;;;11.27;9.13;;;;;;;;;;5006315;28;20774;-58
2023/01/21 13:19:52;;;;;;;9.23;8.17;;;;;;;;;;5009941;28;20208;-58
2023/01/21 13:22:29;;;;;;;11.63;9.70;;;;;;;;;;5010575;28;20200;-57
2023/01/21 13:25:13;;;;;;;11.07;9.93;;;;;;;;;;5009286;28;20196;-57
2023/01/21 13:27:44;;;;;;;29.10;21.87;;;;;;;;;;5011189;28;20358;-56
2023/01/21 13:30:17;;;;;;;8.53;7.60;;;;;;;;;;5011763;28;20560;-59
2023/01/21 13:32:49;;;;;;;12.80;11.13;;;;;;;;;;5011336;28;20200;-56
2023/01/21 13:35:32;;;;;;;10.87;8.30;;;;;;;;;;5012842;28;20212;-57
2023/01/21 13:38:05;;;;;;;11.37;10.17;;;;;;;;;;5014432;28;20265;-58
2023/01/21 13:40:37;;;;;;;14.93;13.33;;;;;;;;;;5007959;28;20211;-56
2023/01/21 13:43:10;;;;;;;13.93;12.30;;;;;;;;;;5008382;28;20197;-58
2023/01/21 13:45:44;;;;;;;16.37;13.53;;;;;;;;;;5007016;28;20223;-57
2023/01/21 13:48:20;;;;;;;11.67;9.80;;;;;;;;;;5006803;28;20234;-57
2023/01/21 13:51:04;;;;;;;9.83;7.90;;;;;;;;;;5006673;28;20204;-56
2023/01/21 13:53:44;;;;;;;10.70;8.40;;;;;;;;;;5007167;28;20208;-56
2023/01/21 13:56:21;;;;;;;11.67;8.13;;;;;;;;;;5011382;28;20263;-59
2023/01/21 13:58:50;;;;;;;7.97;7.17;;;;;;;;;;5011858;28;20214;-58
2023/01/21 14:01:19;;;;;;;11.47;9.20;;;;;;;;;;5013904;28;20294;-57
2023/01/21 14:03:50;;;;;;;11.97;8.80;;;;;;;;;;5013685;28;20596;-56
2023/01/21 14:06:23;;;;;;;10.60;8.13;;;;;;;;;;5012700;28;20260;-57
2023/01/21 14:08:53;;;;;;;11.33;8.57;;;;;;;;;;5008800;28;20315;-58
2023/01/21 14:11:23;;;;;;;10.27;8.17;;;;;;;;;;5012404;28;20216;-57
2023/01/21 14:14:09;;;;;;;9.43;7.20;;;;;;;;;;5005369;28;20200;-58
2023/01/21 14:16:46;;;;;;;10.83;8.33;;;;;;;;;;5007431;28;20196;-58
2023/01/21 14:19:22;;;;;;;11.83;9.20;;;;;;;;;;5006754;28;20211;-57
2023/01/21 14:21:59;;;;;;;10.40;8.30;;;;;;;;;;5007416;28;20208;-59
2023/01/21 14:24:34;;;;;;;10.63;8.67;;;;;;;;;;5005367;28;20223;-57
2023/01/21 14:27:06;;;;;;;10.87;8.37;;;;;;;;;;5008612;28;20224;-57
2023/01/21 14:29:35;;;;;;;14.37;10.13;;;;;;;;;;5008316;28;20199;-58
2023/01/21 14:32:05;;;;;;;11.47;9.20;;;;;;;;;;5005618;28;20522;-59
2023/01/21 14:34:35;;;;;;;14.23;9.83;;;;;;;;;;5004434;28;20199;-57
2023/01/21 14:37:06;;;;;;;12.10;9.30;;;;;;;;;;5005054;28;20192;-58
2023/01/21 14:39:39;;;;;;;11.43;8.63;;;;;;;;;;5010541;28;20429;-58
2023/01/21 14:42:09;;;;;;;12.57;10.30;;;;;;;;;;5004681;28;20209;-59
2023/01/21 14:44:41;;;;;;;13.07;10.00;;;;;;;;;;5007753;28;20258;-59
2023/01/21 14:47:16;;;;;;;14.63;10.53;;;;;;;;;;5006198;28;20273;-59
2023/01/21 14:49:44;;;;;;;12.33;9.20;;;;;;;;;;5006939;28;20204;-57
2023/01/21 14:52:14;;;;;;;10.37;8.83;;;;;;;;;;5008309;28;20208;-56
2023/01/21 14:54:43;;;;;;;12.73;9.13;;;;;;;;;;5012562;28;20216;-59